Casnovia, Michigan
Current Conditions -  °F | °C
As of 6:55 AM on Thursday 27 Nov 2014 (Local Time) from KFFX Reporting Station
Light Snow Light Snow  
Wind Chill: 27°   Ceiling: 2600
Heat Index: 27°   Visibility: 1.7mi
Dew Point: 26°   Wind: 0mph
Humidity: 96%   Direction: NA
Pressure: 30.16"   Gusts: NA
Location:  43.23°N, 85.79°W
Report Text: KFFX 271155Z AUTO 00000KT 1 3/4SM -SN SCT014 OVC026 M03/M04 A3016 RMK AO2 T10301036 11023 21031
Loading
Personal Weather Stations






























Interactive Weather Map New forecast layout! Learn more

10-Day Weather Forecast

Advertisements
Track Severe Weather on mobile